Station: EBLG - 20/10/2019 07:20Z (il y a 14 minutes)
EBLG 200720Z 03003KT 8000 FEW014 BKN023 11/10 Q1007 TEMPO 4000 RA
Vent du 030º - 3 kt
Visibilité: 8000 m
Nuages épars à 1400 pieds - Ciel 75% couvert à 2300 pieds
Température: +11ºC - Point de rosée: +10ºC - QNH: 1007 hPa
Temporairement
Visibilité: 4000 m (pluie)